Time;durP1;ratioP1;P1;durP2;ratioP2;P2;SDS_P1;SDS_P2;PMS_P1;PMS_P2;Temp;Humidity;BMP_temperature;BMP_pressure;BME280_temperature;BME280_humidity;BME280_pressure;Samples;Min_cycle;Max_cycle;Signal;HPM_P1;HPM_P2
2024/01/22 00:01:39;;;;;;;4.50;2.42;;;16.10;63.60;;;;;;5053134;28;20052;-35
2024/01/22 00:04:07;;;;;;;3.35;2.20;;;;;;;;;;5053282;28;20410;-31
2024/01/22 00:06:34;;;;;;;3.35;1.98;;;;;;;;;;5052996;28;20100;-31
2024/01/22 00:09:02;;;;;;;4.25;2.10;;;16.40;42.30;;;;;;5052969;28;20048;-32
2024/01/22 00:11:30;;;;;;;3.58;2.13;;;;;;;;;;5051907;28;20064;-32
2024/01/22 00:13:56;;;;;;;2.97;2.22;;;16.10;63.80;;;;;;5073143;28;20094;-28
2024/01/22 00:16:23;;;;;;;3.15;1.88;;;16.70;64.00;;;;;;5073117;28;20105;-28
2024/01/22 00:18:51;;;;;;;2.75;2.00;;;;;;;;;;5072384;28;20382;-28
2024/01/22 00:21:17;;;;;;;3.13;2.00;;;16.40;64.50;;;;;;5073242;28;20056;-28
2024/01/22 00:23:44;;;;;;;4.07;2.33;;;16.60;55.20;;;;;;5072657;28;20106;-28
2024/01/22 00:26:14;;;;;;;3.80;2.15;;;16.50;64.60;;;;;;5072211;28;20044;-28
2024/01/22 00:28:40;;;;;;;3.92;2.00;;;16.50;61.90;;;;;;5072316;28;20493;-28
2024/01/22 00:31:07;;;;;;;3.67;1.95;;;;;;;;;;5072773;28;20040;-28
2024/01/22 00:33:34;;;;;;;4.65;2.30;;;16.30;64.20;;;;;;5072544;28;20044;-27
2024/01/22 00:36:00;;;;;;;3.35;2.00;;;16.50;49.50;;;;;;5072173;28;20098;-29
2024/01/22 00:38:27;;;;;;;3.47;1.95;;;16.30;64.10;;;;;;5072180;28;20489;-28
2024/01/22 00:40:54;;;;;;;3.25;2.10;;;16.50;64.30;;;;;;5071751;28;20070;-28
2024/01/22 00:43:22;;;;;;;2.92;2.00;;;16.10;56.10;;;;;;5072611;28;20109;-35
2024/01/22 00:45:49;;;;;;;4.43;2.10;;;;;;;;;;5072313;28;20079;-30
2024/01/22 00:48:16;;;;;;;2.85;1.92;;;15.40;63.80;;;;;;5071917;28;20107;-28
2024/01/22 00:50:43;;;;;;;4.38;1.90;;;16.40;47.70;;;;;;5072324;28;20494;-29
2024/01/22 00:53:10;;;;;;;3.13;1.90;;;16.30;63.90;;;;;;5072430;28;20121;-28
2024/01/22 00:55:36;;;;;;;3.00;1.88;;;16.40;64.80;;;;;;5054445;28;20099;-34
2024/01/22 00:58:03;;;;;;;2.30;1.88;;;16.00;58.30;;;;;;5052293;28;20102;-35
2024/01/22 01:00:31;;;;;;;3.88;1.80;;;16.40;64.90;;;;;;5051834;28;20052;-35
2024/01/22 01:02:58;;;;;;;3.08;1.95;;;16.60;64.60;;;;;;5052481;28;20053;-34
2024/01/22 01:05:25;;;;;;;3.22;1.88;;;;;;;;;;5052293;28;20048;-34
2024/01/22 01:07:52;;;;;;;2.90;1.70;;;15.90;64.70;;;;;;5055285;28;20047;-37
2024/01/22 01:10:19;;;;;;;2.95;1.90;;;;;;;;;;5071992;28;20118;-34
2024/01/22 01:12:46;;;;;;;3.05;1.52;;;15.40;64.00;;;;;;5072177;28;20048;-33
2024/01/22 01:15:13;;;;;;;3.47;1.98;;;16.90;64.80;;;;;;5071957;28;20123;-34
2024/01/22 01:17:41;;;;;;;3.25;2.17;;;16.20;42.90;;;;;;5071941;28;20049;-34
2024/01/22 01:20:08;;;;;;;3.58;2.00;;;15.40;56.70;;;;;;5071601;28;20048;-34
2024/01/22 01:22:36;;;;;;;2.70;1.67;;;;;;;;;;5070997;28;20113;-33
2024/01/22 01:25:03;;;;;;;2.80;1.67;;;;;;;;;;5071940;28;20048;-34
2024/01/22 01:27:30;;;;;;;4.53;1.70;;;;;;;;;;5071644;28;20056;-33
2024/01/22 01:29:57;;;;;;;3.15;1.70;;;15.40;64.20;;;;;;5071622;28;20497;-34
2024/01/22 01:32:24;;;;;;;2.80;1.70;;;16.00;64.60;;;;;;5071930;28;20056;-28
2024/01/22 01:34:52;;;;;;;3.00;1.85;;;15.60;61.70;;;;;;5071693;28;20053;-35
2024/01/22 01:37:18;;;;;;;3.15;1.90;;;15.90;65.00;;;;;;5055713;28;20092;-33
2024/01/22 01:39:45;;;;;;;3.85;1.70;;;16.50;65.00;;;;;;5065130;28;20056;-33
2024/01/22 01:42:12;;;;;;;2.67;1.67;;;;;;;;;;5071718;28;20559;-34
2024/01/22 01:44:52;;;;;;;3.38;1.75;;;16.20;43.20;;;;;;5071581;28;20052;-34
2024/01/22 01:47:19;;;;;;;2.70;1.67;;;;;;;;;;5071826;28;20114;-34
2024/01/22 01:49:47;;;;;;;2.00;1.50;;;15.70;65.10;;;;;;5070868;28;20106;-35
2024/01/22 01:52:15;;;;;;;3.10;1.98;;;16.40;65.50;;;;;;5071711;28;20118;-35
2024/01/22 01:54:44;;;;;;;2.22;1.70;;;17.10;65.80;;;;;;5071366;28;20546;-34
2024/01/22 01:57:11;;;;;;;3.17;1.80;;;;;;;;;;5071602;28;20048;-31
2024/01/22 01:59:38;;;;;;;2.53;1.63;;;;;;;;;;5071468;28;20419;-33
2024/01/22 02:02:05;;;;;;;2.70;1.70;;;;;;;;;;5071653;28;20456;-35
2024/01/22 02:04:32;;;;;;;3.58;1.50;;;15.70;65.40;;;;;;5057824;28;20502;-33
2024/01/22 02:06:59;;;;;;;2.35;1.65;;;;;;;;;;5066678;28;20095;-34
2024/01/22 02:09:48;;;;;;;2.50;1.75;;;16.10;43.50;;;;;;5051064;28;20457;-35
2024/01/22 02:12:16;;;;;;;2.05;1.60;;;16.20;54.60;;;;;;5051487;28;20499;-34
2024/01/22 02:14:42;;;;;;;3.80;1.70;;;15.70;54.90;;;;;;5057918;28;20531;-37
2024/01/22 02:17:09;;;;;;;2.20;1.70;;;;;;;;;;5070708;28;20052;-33
2024/01/22 02:19:36;;;;;;;3.28;1.58;;;15.90;65.50;;;;;;5071027;28;20102;-35
2024/01/22 02:22:03;;;;;;;3.38;1.70;;;;;;;;;;5071441;28;20052;-35
2024/01/22 02:24:32;;;;;;;2.55;1.50;;;16.10;43.70;;;;;;5071482;28;20131;-33
2024/01/22 02:26:59;;;;;;;3.63;1.80;;;16.30;66.20;;;;;;5071271;28;20049;-37
2024/01/22 02:29:26;;;;;;;2.30;1.45;;;;;;;;;;5070890;28;20055;-30
2024/01/22 02:31:53;;;;;;;3.67;1.80;;;15.40;66.00;;;;;;5062715;28;20098;-34
2024/01/22 02:34:20;;;;;;;3.97;2.05;;;14.90;50.70;;;;;;5051745;28;20045;-35
2024/01/22 02:36:47;;;;;;;2.90;1.60;;;16.20;53.40;;;;;;5062209;28;20049;-33
2024/01/22 02:39:14;;;;;;;4.78;1.60;;;;;;;;;;5074790;28;20094;-34
2024/01/22 02:41:42;;;;;;;2.47;1.73;;;15.90;66.40;;;;;;5074715;28;20052;-34
2024/01/22 02:44:09;;;;;;;2.80;1.58;;;16.60;45.80;;;;;;5074941;28;20076;-34
2024/01/22 02:46:36;;;;;;;2.67;1.80;;;15.40;46.10;;;;;;5074095;28;20102;-37
2024/01/22 02:49:02;;;;;;;2.83;1.67;;;16.50;55.80;;;;;;5074350;28;20448;-34
2024/01/22 02:51:29;;;;;;;3.90;1.90;;;;;;;;;;5073778;28;20079;-36
2024/01/22 02:53:57;;;;;;;2.63;1.55;;;;;;;;;;5074529;28;20048;-33
2024/01/22 02:56:24;;;;;;;2.05;1.38;;;15.60;66.00;;;;;;5074602;28;20444;-33
2024/01/22 02:58:52;;;;;;;4.38;1.90;;;15.70;65.90;;;;;;5074025;28;20079;-28
2024/01/22 03:01:19;;;;;;;2.92;1.77;;;16.70;66.80;;;;;;5060090;28;20587;-28
2024/01/22 03:03:46;;;;;;;2.47;1.60;;;15.50;65.70;;;;;;5074662;28;20049;-27
2024/01/22 03:06:13;;;;;;;4.15;1.50;;;16.00;50.30;;;;;;5074673;28;20117;-30
2024/01/22 03:08:40;;;;;;;2.38;1.50;;;16.50;59.00;;;;;;5073923;28;20156;-28
2024/01/22 03:11:07;;;;;;;1.98;1.52;;;16.30;44.40;;;;;;5074400;28;20044;-28
2024/01/22 03:13:34;;;;;;;2.13;1.52;;;16.20;66.00;;;;;;5073783;28;20070;-27
2024/01/22 03:16:02;;;;;;;2.78;1.70;;;16.50;46.60;;;;;;5063888;28;20107;-30
2024/01/22 03:18:29;;;;;;;2.40;1.52;;;;;;;;;;5054094;28;20071;-30
2024/01/22 03:20:57;;;;;;;3.17;1.67;;;16.70;66.30;;;;;;5054093;28;20049;-28
2024/01/22 03:23:23;;;;;;;2.65;1.77;;;17.40;54.30;;;;;;5054224;28;20049;-30
2024/01/22 03:25:50;;;;;;;3.00;1.73;;;16.80;65.90;;;;;;5054291;28;20514;-28
2024/01/22 03:28:17;;;;;;;2.10;1.52;;;17.40;66.50;;;;;;5054005;28;20044;-28
2024/01/22 03:30:44;;;;;;;2.38;1.65;;;;;;;;;;5054888;28;20052;-28
2024/01/22 03:33:12;;;;;;;2.33;1.50;;;16.80;65.90;;;;;;5054020;28;20098;-28
2024/01/22 03:35:39;;;;;;;2.97;1.50;;;;;;;;;;5054088;28;20133;-28
2024/01/22 03:38:06;;;;;;;3.00;1.60;;;;;;;;;;5071907;28;20040;-29
2024/01/22 03:40:34;;;;;;;1.45;1.35;;;;;;;;;;5073479;28;20514;-32
2024/01/22 03:43:01;;;;;;;2.00;1.40;;;;;;;;;;5073492;28;20094;-32
2024/01/22 03:45:28;;;;;;;3.50;1.40;;;;;;;;;;5073035;28;20048;-33
2024/01/22 03:47:55;;;;;;;1.63;1.30;;;;;;;;;;5054669;28;20053;-28
2024/01/22 03:50:23;;;;;;;2.22;1.40;;;16.90;43.70;;;;;;5053405;28;20453;-30
2024/01/22 03:52:50;;;;;;;2.40;1.50;;;;;;;;;;5053580;28;20057;-31
2024/01/22 03:55:17;;;;;;;1.80;1.35;;;;;;;;;;5053549;28;20045;-29
2024/01/22 03:57:44;;;;;;;1.92;1.48;;;;;;;;;;5053152;28;20579;-29
2024/01/22 04:00:12;;;;;;;2.47;1.35;;;17.20;45.00;;;;;;5053358;28;20053;-36
2024/01/22 04:02:39;;;;;;;3.88;1.38;;;16.70;65.20;;;;;;5059426;28;20052;-37
2024/01/22 04:05:07;;;;;;;2.10;1.35;;;16.40;65.10;;;;;;5073325;28;20040;-37
2024/01/22 04:07:36;;;;;;;2.58;1.38;;;17.00;43.80;;;;;;5072964;28;20135;-31
2024/01/22 04:10:03;;;;;;;1.40;1.30;;;;;;;;;;5072900;28;20044;-32
2024/01/22 04:12:29;;;;;;;2.05;1.38;;;16.90;65.30;;;;;;5054596;28;20063;-27
2024/01/22 04:14:56;;;;;;;2.85;1.40;;;17.60;65.40;;;;;;5053074;28;20107;-28
2024/01/22 04:17:23;;;;;;;1.98;1.30;;;;;;;;;;5053022;28;20053;-28
2024/01/22 04:19:50;;;;;;;2.22;1.35;;;17.30;65.10;;;;;;5064512;28;20505;-28
2024/01/22 04:22:17;;;;;;;1.98;1.48;;;;;;;;;;5073032;28;20052;-30
2024/01/22 04:24:45;;;;;;;1.80;1.45;;;17.30;65.30;;;;;;5072780;28;20560;-36
2024/01/22 04:27:13;;;;;;;1.65;1.30;;;;;;;;;;5072776;28;20048;-35
2024/01/22 04:29:39;;;;;;;1.80;1.23;;;17.10;64.60;;;;;;5072488;28;20503;-28
2024/01/22 04:32:07;;;;;;;2.15;1.30;;;17.30;65.20;;;;;;5072897;28;20113;-28
2024/01/22 04:34:35;;;;;;;1.83;1.50;;;17.20;65.20;;;;;;5072553;28;20048;-34
2024/01/22 04:37:02;;;;;;;1.50;1.33;;;17.30;64.90;;;;;;5070487;28;20049;-36
2024/01/22 04:39:29;;;;;;;2.03;1.40;;;17.30;65.00;;;;;;5072175;28;20072;-34
2024/01/22 04:41:57;;;;;;;2.75;1.63;;;17.20;43.80;;;;;;5072632;28;20486;-33
2024/01/22 04:44:27;;;;;;;1.52;1.10;;;17.20;61.40;;;;;;5072805;28;20048;-35
2024/01/22 04:46:54;;;;;;;2.35;1.25;;;17.30;49.70;;;;;;5072351;28;20052;-30
2024/01/22 04:49:21;;;;;;;1.30;1.20;;;;;;;;;;5071458;28;20086;-27
2024/01/22 04:51:48;;;;;;;1.70;1.40;;;;;;;;;;5072314;28;20116;-31
2024/01/22 04:54:15;;;;;;;2.53;1.38;;;;;;;;;;5072333;28;20488;-28
2024/01/22 04:56:42;;;;;;;1.50;1.10;;;17.20;43.70;;;;;;5071937;28;20106;-31
2024/01/22 04:59:10;;;;;;;1.63;1.20;;;17.40;64.90;;;;;;5071787;28;20048;-28
2024/01/22 05:01:37;;;;;;;1.38;1.20;;;17.60;65.10;;;;;;5066175;28;20051;-28
2024/01/22 05:04:04;;;;;;;1.48;1.00;;;17.30;43.70;;;;;;5064396;28;20048;-31
2024/01/22 05:06:31;;;;;;;1.60;1.20;;;16.50;64.70;;;;;;5054715;28;20106;-28
2024/01/22 05:08:58;;;;;;;1.25;1.15;;;;;;;;;;5052100;28;20049;-33
2024/01/22 05:11:25;;;;;;;1.40;1.15;;;17.00;62.00;;;;;;5052229;28;20049;-28
2024/01/22 05:13:52;;;;;;;1.40;1.10;;;17.60;64.90;;;;;;5052223;28;20053;-28
2024/01/22 05:16:21;;;;;;;1.58;1.10;;;17.40;43.70;;;;;;5051871;28;20057;-28
2024/01/22 05:18:48;;;;;;;1.17;1.08;;;17.50;64.80;;;;;;5062655;28;20048;-28
2024/01/22 05:21:15;;;;;;;1.73;1.25;;;16.20;64.30;;;;;;5071965;28;20049;-28
2024/01/22 05:23:42;;;;;;;1.50;1.02;;;17.60;64.90;;;;;;5071843;28;20045;-35
2024/01/22 05:26:09;;;;;;;1.52;1.10;;;18.50;49.10;;;;;;5071858;28;20494;-35
2024/01/22 05:28:36;;;;;;;1.13;1.00;;;16.70;64.50;;;;;;5071618;28;20053;-38
2024/01/22 05:31:04;;;;;;;1.10;1.00;;;;;;;;;;5071738;28;20048;-31
2024/01/22 05:33:32;;;;;;;1.00;0.90;;;17.50;43.60;;;;;;5054434;28;20077;-33
2024/01/22 05:35:59;;;;;;;1.27;1.00;;;;;;;;;;5052578;28;20049;-33
2024/01/22 05:38:26;;;;;;;1.20;1.10;;;17.20;64.20;;;;;;5071851;28;20073;-36
2024/01/22 05:40:53;;;;;;;0.70;0.70;;;17.60;43.50;;;;;;5071339;28;20048;-28
2024/01/22 05:43:20;;;;;;;1.02;0.90;;;17.70;64.70;;;;;;5071800;28;20059;-28
2024/01/22 05:45:47;;;;;;;2.38;1.15;;;17.10;62.60;;;;;;5071671;28;20048;-28
2024/01/22 05:48:14;;;;;;;1.30;1.10;;;18.00;55.60;;;;;;5066880;28;20083;-28
2024/01/22 05:50:42;;;;;;;1.58;1.17;;;18.40;64.80;;;;;;5051511;28;20099;-28
2024/01/22 05:53:09;;;;;;;0.98;0.88;;;17.70;64.80;;;;;;5051686;28;20049;-28
2024/01/22 05:55:36;;;;;;;1.42;0.95;;;17.70;43.40;;;;;;5051345;28;20049;-33
2024/01/22 05:58:03;;;;;;;0.88;0.82;;;;;;;;;;5051492;28;20052;-34
2024/01/22 06:00:30;;;;;;;1.40;0.90;;;;;;;;;;5064267;28;20045;-35
2024/01/22 06:02:57;;;;;;;1.20;0.90;;;17.70;64.70;;;;;;5071863;28;20060;-36
2024/01/22 06:05:24;;;;;;;2.00;0.90;;;17.50;46.50;;;;;;5070669;28;20117;-34
2024/01/22 06:07:52;;;;;;;1.33;1.00;;;17.70;43.40;;;;;;5071361;28;20106;-36
2024/01/22 06:10:19;;;;;;;2.05;1.00;;;18.40;64.90;;;;;;5075251;28;20056;-34
2024/01/22 06:12:47;;;;;;;1.80;1.00;;;;;;;;;;5075483;28;20106;-33
2024/01/22 06:15:14;;;;;;;0.90;0.90;;;;;;;;;;5075111;28;20135;-32
2024/01/22 06:17:42;;;;;;;1.45;1.00;;;;;;;;;;5075517;28;20106;-34
2024/01/22 06:20:09;;;;;;;1.00;0.90;;;17.80;43.30;;;;;;5073696;28;20044;-32
2024/01/22 06:22:36;;;;;;;1.10;1.00;;;17.30;64.30;;;;;;5074866;28;20052;-36
2024/01/22 06:25:05;;;;;;;1.10;0.90;;;17.90;61.90;;;;;;5075002;28;20052;-28
2024/01/22 06:27:32;;;;;;;1.30;0.90;;;18.00;64.20;;;;;;5075034;28;20079;-27
2024/01/22 06:29:59;;;;;;;1.67;1.17;;;18.10;57.80;;;;;;5074901;28;20102;-28
2024/01/22 06:32:26;;;;;;;1.02;0.93;;;17.40;64.40;;;;;;5075209;28;20083;-27
2024/01/22 06:34:53;;;;;;;1.48;0.90;;;;;;;;;;5075017;28;20497;-29
2024/01/22 06:37:21;;;;;;;1.65;0.98;;;17.70;64.30;;;;;;5067178;28;20049;-28
2024/01/22 06:39:48;;;;;;;0.80;0.80;;;17.70;64.10;;;;;;5068531;28;20049;-36
2024/01/22 06:42:17;;;;;;;0.85;0.80;;;17.90;43.40;;;;;;5074848;28;20078;-34
2024/01/22 06:44:44;;;;;;;0.70;0.70;;;17.90;64.10;;;;;;5074995;28;20072;-28
2024/01/22 06:47:12;;;;;;;0.80;0.80;;;18.30;51.30;;;;;;5075005;28;20048;-28
2024/01/22 06:49:38;;;;;;;0.82;0.73;;;17.70;56.50;;;;;;5074364;28;20045;-28
2024/01/22 06:52:06;;;;;;;0.98;0.77;;;17.90;43.30;;;;;;5065033;28;20048;-31
2024/01/22 06:54:33;;;;;;;0.60;0.60;;;17.60;63.90;;;;;;5063917;28;20102;-28
2024/01/22 06:57:00;;;;;;;0.80;0.80;;;;;;;;;;5072385;28;20044;-31
2024/01/22 06:59:30;;;;;;;1.52;0.88;;;17.30;60.30;;;;;;5074437;28;20436;-38
2024/01/22 07:01:58;;;;;;;1.55;0.90;;;17.10;64.00;;;;;;5074733;28;20505;-38
2024/01/22 07:04:25;;;;;;;2.03;1.10;;;18.10;64.50;;;;;;5074416;28;20052;-37
2024/01/22 07:06:52;;;;;;;1.05;0.80;;;18.20;53.90;;;;;;5074403;28;20562;-33
2024/01/22 07:09:19;;;;;;;0.77;0.77;;;18.40;64.80;;;;;;5057223;28;20456;-28
2024/01/22 07:11:47;;;;;;;1.52;1.00;;;;;;;;;;5066406;28;20048;-33
2024/01/22 07:14:14;;;;;;;1.60;0.80;;;17.80;64.20;;;;;;5064425;28;20465;-28
2024/01/22 07:16:42;;;;;;;1.52;0.90;;;17.50;51.00;;;;;;5064681;28;20080;-30
2024/01/22 07:19:08;;;;;;;1.30;0.80;;;17.70;53.30;;;;;;5062589;28;20095;-28
2024/01/22 07:21:35;;;;;;;1.00;0.90;;;18.30;65.00;;;;;;5063578;28;20394;-33
2024/01/22 07:24:02;;;;;;;0.95;0.80;;;19.10;65.10;;;;;;5064521;28;20052;-38
2024/01/22 07:26:29;;;;;;;1.33;0.90;;;18.80;61.60;;;;;;5063738;28;20045;-33
2024/01/22 07:28:56;;;;;;;0.98;0.68;;;18.20;64.70;;;;;;5060204;28;20101;-38
2024/01/22 07:31:23;;;;;;;3.55;1.00;;;;;;;;;;5064326;28;20056;-31
2024/01/22 07:33:51;;;;;;;2.47;0.85;;;17.90;44.00;;;;;;5062518;28;20091;-35
2024/01/22 07:36:18;;;;;;;1.00;0.90;;;18.20;65.10;;;;;;5060213;28;20049;-35
2024/01/22 07:38:47;;;;;;;1.48;0.80;;;;;;;;;;5065240;28;20052;-34
2024/01/22 07:41:14;;;;;;;0.77;0.73;;;17.60;65.00;;;;;;5063197;28;20047;-34
2024/01/22 07:43:41;;;;;;;1.92;1.20;;;;;;;;;;5058495;28;20383;-32
2024/01/22 07:46:08;;;;;;;0.95;0.73;;;17.80;64.80;;;;;;5053901;28;20049;-27
2024/01/22 07:48:35;;;;;;;0.82;0.70;;;;;;;;;;5053694;28;20136;-33
2024/01/22 07:51:04;;;;;;;1.92;1.02;;;18.50;65.30;;;;;;5053610;28;20072;-36
2024/01/22 07:53:30;;;;;;;1.63;0.93;;;16.90;64.40;;;;;;5070663;28;20497;-34
2024/01/22 07:55:57;;;;;;;2.78;1.40;;;;;;;;;;5073977;28;20052;-34
2024/01/22 07:58:24;;;;;;;1.23;0.90;;;18.60;65.50;;;;;;5073582;28;20101;-33
2024/01/22 08:00:51;;;;;;;1.27;0.90;;;18.20;65.20;;;;;;5062132;28;20130;-28
2024/01/22 08:03:18;;;;;;;2.22;1.10;;;18.00;62.90;;;;;;5053711;28;20136;-28
2024/01/22 08:05:45;;;;;;;1.23;0.90;;;17.70;64.70;;;;;;5064136;28;20090;-27
2024/01/22 08:08:13;;;;;;;2.67;1.08;;;18.00;44.30;;;;;;5062810;28;20101;-33
2024/01/22 08:10:40;;;;;;;1.55;1.00;;;;;;;;;;5061443;28;20041;-33
2024/01/22 08:13:07;;;;;;;1.92;1.13;;;19.10;65.80;;;;;;5053470;28;20099;-29
2024/01/22 08:15:34;;;;;;;2.75;1.23;;;18.00;65.10;;;;;;5068884;28;20057;-28
2024/01/22 08:18:01;;;;;;;2.15;1.10;;;18.80;63.10;;;;;;5072910;28;20080;-28
2024/01/22 08:20:27;;;;;;;2.45;1.17;;;18.40;65.20;;;;;;5073192;28;20048;-28
2024/01/22 08:22:54;;;;;;;2.70;1.38;;;18.40;46.80;;;;;;5072846;28;20053;-32
2024/01/22 08:25:27;;;;;;;2.75;1.13;;;18.40;64.90;;;;;;5072938;28;20440;-34
2024/01/22 08:27:55;;;;;;;4.38;1.55;;;;;;;;;;5066601;28;20063;-33
2024/01/22 08:30:22;;;;;;;2.72;1.38;;;18.90;65.10;;;;;;5058734;28;20083;-37
2024/01/22 08:32:51;;;;;;;4.20;1.15;;;;;;;;;;5062022;28;20048;-33
2024/01/22 08:35:18;;;;;;;3.78;1.40;;;18.80;65.00;;;;;;5073003;28;20106;-34
2024/01/22 08:37:50;;;;;;;2.58;1.20;;;18.30;65.10;;;;;;5059914;28;20517;-37
2024/01/22 08:40:21;;;;;;;3.63;1.60;;;;;;;;;;5070333;28;20044;-31
2024/01/22 08:42:50;;;;;;;4.15;1.38;;;19.40;64.90;;;;;;5072908;28;20118;-36
2024/01/22 08:45:17;;;;;;;5.43;1.27;;;19.40;64.60;;;;;;5070152;28;20127;-37
2024/01/22 08:47:45;;;;;;;2.97;1.38;;;18.60;44.60;;;;;;5060487;28;20099;-34
2024/01/22 08:50:15;;;;;;;2.85;1.50;;;18.90;64.00;;;;;;5072152;28;20048;-35
2024/01/22 08:52:42;;;;;;;4.15;1.38;;;19.80;64.40;;;;;;5072370;28;20097;-28
2024/01/22 08:55:09;;;;;;;5.15;1.77;;;;;;;;;;5071832;28;20048;-34
2024/01/22 08:57:36;;;;;;;2.97;1.30;;;19.60;53.70;;;;;;5071964;28;20049;-35
2024/01/22 09:00:10;;;;;;;3.38;1.40;;;19.10;43.80;;;;;;5072428;28;20131;-33
2024/01/22 09:02:37;;;;;;;3.92;1.60;;;18.50;63.40;;;;;;5070771;28;20052;-33
2024/01/22 09:05:05;;;;;;;3.70;1.30;;;19.20;63.90;;;;;;5071329;28;20137;-35
2024/01/22 09:07:32;;;;;;;3.25;1.30;;;19.20;57.80;;;;;;5052192;28;20060;-28
2024/01/22 09:09:59;;;;;;;2.33;1.20;;;18.50;63.20;;;;;;5052094;28;20049;-28
2024/01/22 09:12:26;;;;;;;3.78;1.70;;;;;;;;;;5052332;28;20137;-29
2024/01/22 09:14:53;;;;;;;4.10;1.50;;;19.40;63.90;;;;;;5052016;28;20060;-28
2024/01/22 09:17:21;;;;;;;3.17;1.33;;;19.40;43.50;;;;;;5052119;28;20106;-34
2024/01/22 09:19:48;;;;;;;3.28;1.40;;;;;;;;;;5063786;28;20114;-31
2024/01/22 09:22:15;;;;;;;3.08;1.42;;;18.50;62.80;;;;;;5052023;28;20556;-28
2024/01/22 09:24:42;;;;;;;3.15;1.23;;;20.10;63.70;;;;;;5054744;28;20114;-28
2024/01/22 09:27:08;;;;;;;5.22;1.50;;;19.00;62.60;;;;;;5052189;28;20053;-28
2024/01/22 09:29:35;;;;;;;2.80;1.20;;;20.10;63.60;;;;;;5061967;28;20098;-28
2024/01/22 09:32:02;;;;;;;2.88;1.27;;;;;;;;;;5072162;28;20052;-33
2024/01/22 09:34:30;;;;;;;3.10;1.33;;;19.50;63.60;;;;;;5071974;28;20094;-36
2024/01/22 09:36:57;;;;;;;2.22;1.15;;;20.00;63.50;;;;;;5071263;28;20102;-37
2024/01/22 09:39:24;;;;;;;2.47;1.20;;;19.60;57.80;;;;;;5062139;28;20134;-28
2024/01/22 09:41:51;;;;;;;3.17;1.23;;;19.80;52.90;;;;;;5065709;28;20102;-30
2024/01/22 09:44:18;;;;;;;2.83;1.40;;;20.00;64.00;;;;;;5071371;28;20102;-28
2024/01/22 09:46:45;;;;;;;2.63;1.20;;;20.80;45.80;;;;;;5071582;28;20071;-31
2024/01/22 09:49:11;;;;;;;2.70;1.30;;;19.20;63.40;;;;;;5071843;28;20076;-34
2024/01/22 09:51:40;;;;;;;5.05;1.70;;;18.90;62.40;;;;;;5071674;28;20076;-28
2024/01/22 09:54:07;;;;;;;4.68;1.50;;;20.70;63.70;;;;;;5071542;28;20080;-28
2024/01/22 09:56:34;;;;;;;6.30;1.70;;;19.80;55.00;;;;;;5070606;28;20048;-37
2024/01/22 09:59:02;;;;;;;4.65;1.70;;;20.80;63.20;;;;;;5057403;28;20142;-28
2024/01/22 10:01:28;;;;;;;5.93;1.80;;;20.40;63.30;;;;;;5051415;28;20541;-35
2024/01/22 10:03:57;;;;;;;4.68;1.95;;;;;;;;;;5051753;28;20111;-30
2024/01/22 10:06:24;;;;;;;5.40;1.90;;;20.30;49.90;;;;;;5051213;28;20056;-29
2024/01/22 10:08:58;;;;;;;4.93;1.80;;;19.50;62.40;;;;;;5051915;28;20130;-35
2024/01/22 10:11:25;;;;;;;3.70;1.73;;;19.50;57.90;;;;;;5051466;28;20080;-36
2024/01/22 10:13:52;;;;;;;4.35;1.77;;;20.30;56.10;;;;;;5052903;28;20077;-34
2024/01/22 10:16:19;;;;;;;4.57;2.13;;;20.20;63.40;;;;;;5051483;28;20049;-38
2024/01/22 10:18:56;;;;;;;5.70;1.90;;;20.10;43.60;;;;;;5051356;28;20075;-30
2024/01/22 10:21:23;;;;;;;5.57;1.80;;;20.10;42.80;;;;;;5051613;28;20045;-36
2024/01/22 10:23:58;;;;;;;4.35;2.00;;;20.70;62.70;;;;;;5051336;28;20486;-28
2024/01/22 10:26:24;;;;;;;;;;;21.40;44.00;;;;;;5051938;28;20059;-28
2024/01/22 10:28:51;;;;;;;5.05;1.80;;;19.20;62.00;;;;;;5051132;28;20398;-35
2024/01/22 10:31:18;;;;;;;4.82;2.00;;;;;;;;;;5055596;28;20052;-35
2024/01/22 10:33:45;;;;;;;4.40;1.73;;;20.10;62.30;;;;;;5060251;28;20560;-28
2024/01/22 10:36:16;;;;;;;4.68;1.90;;;20.30;42.80;;;;;;5059183;28;20060;-32
2024/01/22 10:38:44;;;;;;;5.32;1.95;;;19.30;61.90;;;;;;5067630;28;20120;-37
2024/01/22 10:41:18;;;;;;;5.60;2.20;;;19.80;44.90;;;;;;5061049;28;20083;-33
2024/01/22 10:43:44;;;;;;;4.75;1.92;;;;;;;;;;5071126;28;20087;-28
2024/01/22 10:46:12;;;;;;;6.38;2.38;;;20.10;51.40;;;;;;5070355;28;20058;-30
2024/01/22 10:48:40;;;;;;;6.80;2.33;;;;;;;;;;5058903;28;20080;-33
2024/01/22 10:51:07;;;;;;;5.65;2.10;;;;;;;;;;5060559;28;20041;-33
2024/01/22 10:53:34;;;;;;;4.60;1.92;;;19.40;61.60;;;;;;5061462;28;20517;-28
2024/01/22 10:56:01;;;;;;;5.05;2.13;;;19.40;62.60;;;;;;5061451;28;20045;-28
2024/01/22 10:58:33;;;;;;;5.15;2.20;;;20.50;47.10;;;;;;5063323;28;20135;-28
2024/01/22 11:01:02;;;;;;;6.45;2.72;;;20.10;62.50;;;;;;5064177;28;20486;-38
2024/01/22 11:03:29;;;;;;;6.10;2.30;;;19.80;62.90;;;;;;5063987;28;20073;-28
2024/01/22 11:05:58;;;;;;;5.53;2.17;;;19.90;48.60;;;;;;5063204;28;20045;-36
2024/01/22 11:08:24;;;;;;;7.65;2.95;;;20.40;62.50;;;;;;5063999;28;20076;-34
2024/01/22 11:10:51;;;;;;;4.93;2.08;;;;;;;;;;5064776;28;20470;-31
2024/01/22 11:13:18;;;;;;;7.68;2.53;;;20.00;63.30;;;;;;5063500;28;20100;-37
2024/01/22 11:15:46;;;;;;;6.55;2.40;;;19.90;42.70;;;;;;5064187;28;20098;-32
2024/01/22 11:18:13;;;;;;;6.15;2.40;;;;;;;;;;5065233;28;20061;-36
2024/01/22 11:20:40;;;;;;;7.13;2.40;;;19.20;62.40;;;;;;5062981;28;20052;-35
2024/01/22 11:23:09;;;;;;;7.53;2.42;;;20.00;62.50;;;;;;5058654;28;20041;-38
2024/01/22 11:25:36;;;;;;;7.68;2.90;;;19.40;54.90;;;;;;5062072;28;20090;-31
2024/01/22 11:28:03;;;;;;;8.68;3.00;;;20.60;62.80;;;;;;5062028;28;20073;-34
2024/01/22 11:30:33;;;;;;;7.20;2.70;;;19.90;62.50;;;;;;5064663;28;20107;-28
2024/01/22 11:33:01;;;;;;;6.43;2.75;;;19.70;63.40;;;;;;5053554;28;20717;-28
2024/01/22 11:35:34;;;;;;;8.38;2.85;;;19.70;62.90;;;;;;5053396;28;20658;-29
2024/01/22 11:38:02;;;;;;;5.18;2.60;;;19.00;63.10;;;;;;5061043;28;20080;-36
2024/01/22 11:40:47;;;;;;;7.40;2.75;;;19.80;61.50;;;;;;5064653;28;20081;-35
2024/01/22 11:43:14;;;;;;;;;;;20.10;43.80;;;;;;5067043;28;20050;-35
2024/01/22 11:45:40;;;;;;;10.43;3.00;;;18.70;52.60;;;;;;5063981;28;20393;-38
2024/01/22 11:48:17;;;;;;;7.78;2.85;;;19.40;43.30;;;;;;5064588;28;20068;-37
2024/01/22 11:50:43;;;;;;;7.70;2.58;;;18.90;63.10;;;;;;5061047;28;20044;-28
2024/01/22 11:53:11;;;;;;;7.00;2.60;;;;;;;;;;5064398;28;20145;-28
2024/01/22 11:55:39;;;;;;;7.43;2.70;;;19.00;62.80;;;;;;5053505;28;20141;-29
2024/01/22 11:58:10;;;;;;;7.90;2.80;;;19.10;59.70;;;;;;5053407;28;20796;-29
2024/01/22 12:00:37;;;;;;;10.73;2.60;;;;;;;;;;5053229;28;20045;-33
2024/01/22 12:03:04;;;;;;;9.18;2.63;;;19.80;64.20;;;;;;5053230;28;20044;-28
2024/01/22 12:05:32;;;;;;;8.73;3.10;;;19.20;64.00;;;;;;5053540;28;20077;-35
2024/01/22 12:07:58;;;;;;;9.82;2.83;;;19.50;63.30;;;;;;5053405;28;20106;-36
2024/01/22 12:10:26;;;;;;;8.57;2.95;;;19.20;55.10;;;;;;5053024;28;20164;-32
2024/01/22 12:12:54;;;;;;;6.47;2.75;;;19.50;44.70;;;;;;5053090;28;20187;-32
2024/01/22 12:15:22;;;;;;;7.90;2.88;;;19.10;43.70;;;;;;5052772;28;20044;-31
2024/01/22 12:17:49;;;;;;;7.78;3.42;;;19.00;64.30;;;;;;5052215;28;20516;-38
2024/01/22 12:20:16;;;;;;;9.25;3.00;;;19.10;60.80;;;;;;5052808;28;20049;-35
2024/01/22 12:22:44;;;;;;;9.02;3.35;;;18.70;63.40;;;;;;5052849;28;20094;-28
2024/01/22 12:25:12;;;;;;;8.27;2.78;;;17.90;63.00;;;;;;5062035;28;20068;-28
2024/01/22 12:27:38;;;;;;;9.15;2.80;;;18.80;63.40;;;;;;5062221;28;20072;-28
2024/01/22 12:30:06;;;;;;;8.52;3.20;;;18.90;43.90;;;;;;5063152;28;20098;-33
2024/01/22 12:32:35;;;;;;;6.50;2.72;;;18.70;55.60;;;;;;5059675;28;20098;-28
2024/01/22 12:35:02;;;;;;;6.60;2.25;;;;;;;;;;5062328;28;20049;-32
2024/01/22 12:37:29;;;;;;;6.55;2.80;;;19.10;63.80;;;;;;5060838;28;20509;-28
2024/01/22 12:40:23;;;;;;;4.57;2.17;;;18.80;43.90;;;;;;5064065;28;20483;-33
2024/01/22 12:42:50;;;;;;;6.82;2.78;;;;;;;;;;5047163;28;20429;-34
2024/01/22 12:45:19;;;;;;;8.13;2.90;;;17.90;63.60;;;;;;5062902;28;20454;-28
2024/01/22 12:47:47;;;;;;;8.85;2.80;;;;;;;;;;5059262;28;20541;-33
2024/01/22 12:50:15;;;;;;;7.22;2.78;;;19.20;64.50;;;;;;5054402;28;20052;-28
2024/01/22 12:52:41;;;;;;;7.22;2.72;;;19.10;65.20;;;;;;5072868;28;20044;-35
2024/01/22 12:55:09;;;;;;;6.55;2.53;;;18.70;44.30;;;;;;5070620;28;20569;-32
2024/01/22 12:57:37;;;;;;;7.00;2.53;;;17.70;64.00;;;;;;5072657;28;20131;-28
2024/01/22 13:00:05;;;;;;;6.75;2.53;;;18.90;65.20;;;;;;5072419;28;20080;-28
2024/01/22 13:02:32;;;;;;;7.80;2.70;;;18.30;64.30;;;;;;5072005;28;20051;-28
2024/01/22 13:04:59;;;;;;;7.78;2.50;;;17.50;62.90;;;;;;5072353;28;20106;-29
2024/01/22 13:07:27;;;;;;;6.63;2.47;;;18.90;64.70;;;;;;5069418;28;20405;-28
2024/01/22 13:09:54;;;;;;;8.85;2.70;;;18.30;64.20;;;;;;5054796;28;20044;-28
2024/01/22 13:12:21;;;;;;;5.47;2.40;;;18.70;53.60;;;;;;5066681;28;20048;-28
2024/01/22 13:14:49;;;;;;;9.98;2.90;;;18.60;65.20;;;;;;5072131;28;20083;-28